Flight Track Log - Related Links

Times and Time Zones

All times are in EDT time to prevent confusion due to time zone crossing. See the SWA709 flight status page for this flight to view local times or setup timezone preferences in your user account.

Time Position Orientation Groundspeed Altitude Reporting Facility
EDT Latitude Longitude Course Direction KTS MPH feet Rate Location/Type
Wed 07:23:28 AM 30.1908 -97.7547 270° West 244 281 6,200  Level Houston Center
Wed 07:24:29 AM 30.2519 -97.8253 315° West 307 353 9,100 2,727 Climbing Houston Center
Wed 07:25:29 AM 30.2675 -97.9267 280° West 321 369 11,700 2,876 Climbing Houston Center
Wed 07:26:30 AM 30.2906 -98.0508 282° West 359 413 14,900 3,000 Climbing Houston Center
Wed 07:27:00 AM 30.4118 -97.8623 276° West  Level FlightAware Approximate
Wed 07:27:31 AM 30.3117 -98.1706 282° West 376 433 17,800  Level Houston Center
Wed 07:28:00 AM 30.4167 -97.9843 270° West  Level FlightAware Approximate
Wed 07:28:32 AM 30.3344 -98.2875 283° West 393 452 20,600  Level Houston Center
Wed 07:29:33 AM 30.3561 -98.4167 281° West 403 464 23,300 2,607 Climbing Houston Center
Wed 07:30:34 AM 30.3825 -98.5469 283° West 410 472 25,900 2,262 Climbing Houston Center
Wed 07:31:35 AM 30.4108 -98.6786 284° West 417 480 27,900 1,983 Climbing Houston Center
Wed 07:32:35 AM 30.4406 -98.8156 284° West 432 497 29,900 2,380 Climbing Houston Center
Wed 07:33:36 AM 30.4706 -98.9483 285° West 424 488 32,700 2,902 Climbing Houston Center
Wed 07:34:37 AM 30.4969 -99.0694 284° West 391 450 35,800 2,852 Climbing Houston Center
Wed 07:35:38 AM 30.5217 -99.1828 284° West 349 402 38,500 1,672 Climbing Houston Center
Wed 07:36:39 AM 30.5431 -99.2864 284° West 334 384 39,200 639 Climbing Houston Center
Wed 07:37:40 AM 30.5661 -99.3928 284° West 340 391 39,800 393 Climbing Houston Center
Wed 07:38:41 AM 30.5892 -99.5031 284° West 351 404 40,000 98 Climbing Houston Center
Wed 07:39:42 AM 30.6139 -99.6128 285° West 354 407 40,000  Level Houston Center
Wed 07:40:43 AM 30.6344 -99.7228 282° West 350 403 40,000  Level Houston Center
Wed 07:41:44 AM 30.6572 -99.8314 284° West 350 403 40,000  Level Houston Center
Wed 07:42:45 AM 30.6794 -99.9408 283° West 350 403 40,000  Level Houston Center
Wed 07:43:46 AM 30.7069 -100.0678 284° West 343 395 40,000  Level Houston Center
Wed 07:44:47 AM 30.7272 -100.1719 283° West 337 388 40,000  Level Houston Center
Wed 07:45:48 AM 30.7481 -100.2742 283° West 331 381 40,000  Level Houston Center
Wed 07:46:50 AM 30.7692 -100.3797 283° West 337 388 40,000  Level Houston Center
Wed 07:47:51 AM 30.7903 -100.4856 283° West 338 389 40,000  Level Houston Center
Wed 07:48:52 AM 30.8125 -100.5903 284° West 346 398 40,000  Level Houston Center
Wed 07:49:53 AM 30.8325 -100.6967 282° West 341 392 40,000  Level Houston Center
Wed 07:50:54 AM 30.8536 -100.8031 283° West 343 395 40,000  Level Houston Center
Wed 07:51:55 AM 30.8747 -100.9094 283° West 342 394 40,000  Level Houston Center
Wed 07:52:56 AM 30.9003 -101.0383 283° West 343 395 40,000  Level Houston Center
Wed 07:53:58 AM 30.9214 -101.1464 283° West 347 399 40,000  Level Houston Center
Wed 07:54:59 AM 30.9436 -101.2536 284° West 344 396 40,000  Level Houston Center
Wed 07:56:00 AM 30.9661 -101.3675 283° West 345 397 40,000  Level Houston Center
Wed 07:56:32 AM 30.9733 -101.4106 281° West 345 397 40,000  Level Albuquerque Center
Wed 07:57:33 AM 30.9944 -101.5197 283° West 345 397 40,000  Level Albuquerque Center
Wed 07:58:33 AM 31.0156 -101.6272 283° West 342 394 40,000  Level Albuquerque Center
Wed 07:59:33 AM 31.0358 -101.7364 282° West 343 395 40,000  Level Albuquerque Center
Wed 08:00:34 AM 31.0561 -101.8447 282° West 343 395 40,000  Level Albuquerque Center
Wed 08:01:34 AM 31.0769 -101.9636 282° West 351 404 40,000  Level Albuquerque Center
Wed 08:02:34 AM 31.0978 -102.0722 283° West 347 399 40,000  Level Albuquerque Center
Wed 08:03:35 AM 31.1178 -102.1786 282° West 340 391 40,000  Level Albuquerque Center
Wed 08:04:35 AM 31.1381 -102.2844 283° West 336 387 40,000  Level Albuquerque Center
Wed 08:05:35 AM 31.1569 -102.3889 282° West 332 382 40,000  Level Albuquerque Center
Wed 08:06:36 AM 31.1764 -102.4933 282° West 330 380 40,000  Level Albuquerque Center
Wed 08:07:36 AM 31.1950 -102.5975 282° West 328 377 40,000  Level Albuquerque Center
Wed 08:08:36 AM 31.2142 -102.7028 282° West 328 377 40,000  Level Albuquerque Center
Wed 08:09:37 AM 31.2339 -102.8072 282° West 329 379 40,000  Level Albuquerque Center
Wed 08:10:37 AM 31.2528 -102.9119 282° West 330 380 40,000  Level Albuquerque Center
Wed 08:11:37 AM 31.2719 -103.0167 282° West 330 380 40,000  Level Albuquerque Center
Wed 08:12:38 AM 31.2897 -103.1217 281° West 330 380 40,000  Level Albuquerque Center
Wed 08:13:38 AM 31.3100 -103.2272 283° West 331 381 40,000 -50 Level Albuquerque Center
Wed 08:14:39 AM 31.3500 -103.3256 295° West 334 384 39,900  Descending Albuquerque Center
Wed 08:15:39 AM 31.4078 -103.4425 300° West 345 397 40,000 50 Climbing Albuquerque Center
Wed 08:16:39 AM 31.4542 -103.5411 299° West 346 398 40,000  Level Albuquerque Center
Wed 08:17:40 AM 31.5017 -103.6400 299° West 347 399 40,000 -50 Level Albuquerque Center
Wed 08:18:40 AM 31.5486 -103.7394 299° West 348 400 39,900  Descending Albuquerque Center
Wed 08:19:41 AM 31.5983 -103.8383 301° West 349 402 40,000 50 Climbing Albuquerque Center
Wed 08:20:41 AM 31.6447 -103.9353 299° West 348 400 40,000  Level Albuquerque Center
Wed 08:21:41 AM 31.6903 -104.0306 299° West 344 396 40,000  Level Albuquerque Center
Wed 08:22:42 AM 31.7339 -104.1247 299° West 338 389 40,000 -50 Level Albuquerque Center
Wed 08:23:42 AM 31.7792 -104.2214 299° West 337 388 39,900  Descending Albuquerque Center
Wed 08:24:43 AM 31.8250 -104.3197 299° West 339 390 40,000  Climbing Albuquerque Center
Wed 08:25:43 AM 31.8711 -104.4189 299° West 342 394 39,900 -397 Descending Albuquerque Center
Wed 08:26:44 AM 31.9186 -104.5186 299° West 347 399 39,200 -793 Descending Albuquerque Center
Wed 08:27:44 AM 31.9611 -104.6142 298° West 338 389 38,300 -900 Descending Albuquerque Center
Wed 08:28:44 AM 32.0042 -104.7050 299° West 326 375 37,400 -893 Descending Albuquerque Center
Wed 08:29:45 AM 32.0489 -104.8014 299° West 332 382 36,500 -694 Descending Albuquerque Center
Wed 08:30:45 AM 32.0933 -104.8981 299° West 337 388 36,000 -248 Descending Albuquerque Center
Wed 08:31:46 AM 32.1394 -104.9961 299° West 342 394 36,000  Level Albuquerque Center
Wed 08:32:46 AM 32.1839 -105.0922 299° West 338 389 36,000  Level Albuquerque Center
Wed 08:33:47 AM 32.2292 -105.1925 298° West 336 387 36,000  Level Albuquerque Center
Wed 08:34:47 AM 32.2717 -105.2894 297° West 334 384 36,000  Level Albuquerque Center
Wed 08:35:48 AM 32.3156 -105.3844 299° West 340 391 36,000  Level Albuquerque Center
Wed 08:36:48 AM 32.3589 -105.4794 298° West 332 382 36,000  Level Albuquerque Center
Wed 08:37:49 AM 32.4019 -105.5742 298° West 329 379 36,000  Level Albuquerque Center
Wed 08:38:49 AM 32.4433 -105.6686 297° West 326 375 36,000  Level Albuquerque Center
Wed 08:39:50 AM 32.4953 -105.7803 299° West 324 373 36,000  Level Albuquerque Center
Wed 08:40:50 AM 32.5372 -105.8758 298° West 328 377 36,000  Level Albuquerque Center
Wed 08:41:51 AM 32.5800 -105.9706 298° West 327 376 36,000  Level Albuquerque Center
Wed 08:42:52 AM 32.6231 -106.0653 298° West 325 374 36,000  Level Albuquerque Center
Wed 08:43:52 AM 32.6650 -106.1606 298° West 328 377 36,000  Level Albuquerque Center
Wed 08:44:53 AM 32.7047 -106.2517 297° West 318 366 36,000  Level Albuquerque Center
Wed 08:45:53 AM 32.7483 -106.3458 299° West 324 373 36,000  Level Albuquerque Center
Wed 08:46:54 AM 32.7900 -106.4400 298° West 325 374 36,000  Level Albuquerque Center
Wed 08:47:54 AM 32.8308 -106.5339 297° West 323 372 36,000 -50 Level Albuquerque Center
Wed 08:48:55 AM 32.8722 -106.6292 297° West 325 374 35,900  Descending Albuquerque Center
Wed 08:49:56 AM 32.9133 -106.7217 298° West 323 372 36,000 50 Climbing Albuquerque Center
Wed 08:50:56 AM 32.9531 -106.8150 297° West 320 368 36,000  Level Albuquerque Center
Wed 08:51:57 AM 32.9944 -106.9083 298° West 321 369 36,000  Level Albuquerque Center
Wed 08:52:57 AM 33.0356 -107.0022 298° West 322 371 36,000  Level Albuquerque Center
Wed 08:53:58 AM 33.0758 -107.0961 297° West 320 368 36,000  Level Albuquerque Center
Wed 08:54:58 AM 33.1256 -107.2092 298° West 322 371 36,000  Level Albuquerque Center
Wed 08:55:59 AM 33.1653 -107.3047 296° West 323 372 36,000  Level Albuquerque Center
Wed 08:57:00 AM 33.2083 -107.3997 298° West 326 375 36,000  Level Albuquerque Center
Wed 08:58:00 AM 33.2497 -107.4981 297° West 331 381 36,000 -50 Level Albuquerque Center
Wed 08:59:01 AM 33.2906 -107.5939 297° West 326 375 35,900  Descending Albuquerque Center
Wed 09:00:01 AM 33.3325 -107.6906 297° West 327 376 36,000 50 Climbing Albuquerque Center
Wed 09:01:02 AM 33.3736 -107.7897 296° West 332 382 36,000 -49 Level Albuquerque Center
Wed 09:02:03 AM 33.4186 -107.8925 298° West 345 397 35,900 -50 Descending Albuquerque Center
Wed 09:03:03 AM 33.4614 -107.9947 297° West 346 398 35,900 50 Level Albuquerque Center
Wed 09:04:04 AM 33.5031 -108.0944 297° West 339 390 36,000 49 Climbing Albuquerque Center
Wed 09:05:05 AM 33.5503 -108.2044 297° West 336 387 36,000  Level Albuquerque Center
Wed 09:06:05 AM 33.5928 -108.3044 297° West 340 391 36,000  Level Albuquerque Center
Wed 09:07:06 AM 33.6369 -108.4089 297° West 350 403 36,000  Level Albuquerque Center
Wed 09:08:07 AM 33.6803 -108.5133 297° West 353 406 36,000  Level Albuquerque Center
Wed 09:09:07 AM 33.7231 -108.6167 296° West 352 405 36,000  Level Albuquerque Center
Wed 09:10:08 AM 33.7658 -108.7183 297° West 348 400 36,000  Level Albuquerque Center
Wed 09:11:09 AM 33.8081 -108.8225 296° West 349 402 36,000  Level Albuquerque Center
Wed 09:12:09 AM 33.8497 -108.9242 296° West 347 399 36,000  Level Albuquerque Center
Wed 09:13:10 AM 33.9000 -109.0458 296° West 343 395 36,000  Level Albuquerque Center
Wed 09:14:11 AM 33.9419 -109.1481 296° West 344 396 36,000  Level Albuquerque Center
Wed 09:15:12 AM 33.9833 -109.2483 296° West 342 394 36,000  Level Albuquerque Center
Wed 09:16:13 AM 34.0250 -109.3519 296° West 343 395 36,000  Level Albuquerque Center
Wed 09:17:14 AM 34.0711 -109.4622 297° West 346 398 36,000  Level Albuquerque Center
Wed 09:18:14 AM 34.1117 -109.5639 296° West 348 400 36,000  Level Albuquerque Center
Wed 09:19:15 AM 34.1600 -109.6831 296° West 352 405 36,000  Level Albuquerque Center
Wed 09:20:16 AM 34.2003 -109.7847 296° West 352 405 36,000  Level Albuquerque Center
Wed 09:21:17 AM 34.2597 -109.8747 309° West 359 413 36,000  Level Albuquerque Center
Wed 09:22:18 AM 34.3433 -109.9678 317° Northwest 366 421 36,000  Level Albuquerque Center
Wed 09:23:19 AM 34.4131 -110.0469 317° Northwest 362 417 36,000  Level Albuquerque Center
Wed 09:24:20 AM 34.4850 -110.1269 318° Northwest 363 418 36,000  Level Albuquerque Center
Wed 09:25:21 AM 34.5683 -110.2239 316° Northwest 368 423 36,000  Level Albuquerque Center
Wed 09:26:21 AM 34.6400 -110.3081 316° Northwest 371 427 36,000  Level Albuquerque Center
Wed 09:27:22 AM 34.7111 -110.3889 317° Northwest 368 423 36,000  Level Albuquerque Center
Wed 09:28:23 AM 34.7922 -110.4822 317° Northwest 362 417 36,000  Level Albuquerque Center
Wed 09:29:24 AM 34.8631 -110.5625 317° Northwest 362 417 36,000  Level Albuquerque Center
Wed 09:30:25 AM 34.9333 -110.6456 316° Northwest 364 419 36,000  Level Albuquerque Center
Wed 09:31:26 AM 34.9711 -110.7583 292° West 366 421 36,000  Level Albuquerque Center
Wed 09:32:27 AM 34.9978 -110.8706 286° West 350 403 36,000  Level Albuquerque Center
Wed 09:33:28 AM 35.0258 -110.9842 287° West 351 404 36,000 -49 Level Albuquerque Center
Wed 09:34:29 AM 35.0561 -111.1028 287° West 368 423 35,900 -590 Descending Albuquerque Center
Wed 09:35:30 AM 35.0831 -111.2144 286° West 354 407 34,800 -984 Descending Albuquerque Center
Wed 09:36:31 AM 35.1106 -111.3275 287° West 349 402 33,900 -934 Descending Albuquerque Center
Wed 09:37:32 AM 35.1381 -111.4428 286° West 354 407 32,900 -934 Descending Albuquerque Center
Wed 09:38:33 AM 35.1661 -111.5625 286° West 362 417 32,000 -1,082 Descending Albuquerque Center
Wed 09:39:34 AM 35.2008 -111.7053 287° West 366 421 30,700 -984 Descending Albuquerque Center
Wed 09:40:35 AM 35.2242 -111.8017 287° West 352 405 30,000 -344 Descending Albuquerque Center
Wed 09:41:36 AM 35.2506 -111.9111 286° West 341 392 30,000  Level Albuquerque Center
Wed 09:42:37 AM 35.2761 -112.0211 286° West 338 389 30,000  Level Albuquerque Center
Wed 09:43:38 AM 35.3081 -112.1564 286° West 344 396 30,000  Level Albuquerque Center
Wed 09:44:39 AM 35.3342 -112.2700 286° West 347 399 30,000  Level Albuquerque Center
Wed 09:45:40 AM 35.3614 -112.3850 286° West 351 404 30,000  Level Albuquerque Center
Wed 09:46:25 AM 35.3825 -112.4764 286° West 351 404 30,000  Level Los Angeles Center
Wed 09:47:26 AM 35.4097 -112.5911 286° West 353 406 30,000  Level Los Angeles Center
Wed 09:48:28 AM 35.4356 -112.7036 286° West 351 404 30,000  Level Los Angeles Center
Wed 09:49:29 AM 35.4614 -112.8181 286° West 349 402 30,000  Level Los Angeles Center
Wed 09:50:30 AM 35.4914 -112.9497 286° West 351 404 30,000  Level Los Angeles Center
Wed 09:51:32 AM 35.5186 -113.0692 286° West 358 412 30,000  Level Los Angeles Center
Wed 09:52:33 AM 35.5453 -113.1872 286° West 358 412 30,000  Level Los Angeles Center
Wed 09:53:35 AM 35.5719 -113.3086 285° West 364 419 30,000 -537 Level Los Angeles Center
Wed 09:54:36 AM 35.5997 -113.4317 286° West 373 429 28,900 -1,707 Descending Los Angeles Center
Wed 09:55:38 AM 35.6256 -113.5519 285° West 370 426 26,500 -2,341 Descending Los Angeles Center
Wed 09:56:39 AM 35.6436 -113.6689 281° West 358 412 24,100 -2,341 Descending Los Angeles Center
Wed 09:57:41 AM 35.6586 -113.7839 279° West 346 398 21,700 -2,293 Descending Los Angeles Center
Wed 09:58:42 AM 35.6747 -113.8964 280° West 338 389 19,400 -1,902 Descending Los Angeles Center
Wed 09:59:44 AM 35.6936 -114.0292 280° West 330 380 17,800 -1,839 Descending Los Angeles Center
Wed 10:00:46 AM 35.7092 -114.1414 280° West 325 374 15,600 -2,079 Descending Los Angeles Center
Wed 10:01:25 AM 35.7214 -114.2133 282° West 322 371 14,300 -1,967 Descending Los Angeles Center
Wed 10:01:47 AM 35.7231 -114.2478 273° West 317 365 13,600 -1,881 Descending Los Angeles Center
Wed 10:02:32 AM 35.7400 -114.3239 285° West 308 354 12,200 -1,548 Descending Los Angeles Center
Wed 10:02:49 AM 35.7503 -114.3439 302° West 306 352 12,000 -984 Descending Los Angeles Center
Wed 10:03:33 AM 35.7975 -114.3972 318° Northwest 302 348 11,200 -984 Descending Los Angeles Center
Wed 10:03:50 AM 35.8106 -114.4144 313° West 301 346 11,000 -889 Descending Los Angeles Center
Wed 10:04:27 AM 35.8536 -114.4633 317° Northwest 299 344 10,400 -871 Descending Los Angeles Center
Wed 10:04:52 AM 35.8697 -114.4853 312° West 297 342 10,100 -358 Descending Los Angeles Center
Wed 10:05:34 AM 35.9214 -114.5442 317° Northwest 295 339 10,000 -98 Descending Los Angeles Center
Wed 10:05:53 AM 35.9281 -114.5536 311° West 291 335 10,000 -197 Level Los Angeles Center
Wed 10:06:35 AM 35.9689 -114.6025 316° Northwest 237 273 9,800 -387 Descending Los Angeles Center
Wed 10:06:55 AM 35.9736 -114.6092 311° West 235 270 9,600 -1,082 Descending Los Angeles Center
Wed 10:07:36 AM 35.9969 -114.6703 295° West 228 262 8,700 -984 Descending Los Angeles Center
Wed 10:07:56 AM 36.0025 -114.6792 308° West 228 262 8,600 -1,082 Descending Los Angeles Center
Wed 10:08:37 AM 36.0236 -114.7411 293° West 225 259 7,600 -774 Descending Los Angeles Center
Wed 10:08:58 AM 36.0364 -114.7642 304° West 227 261 7,800 -885 Climbing Los Angeles Center
Wed 10:09:38 AM 36.0519 -114.8117 292° West 227 261 6,700 -1,279 Descending Los Angeles Center
Wed 10:09:59 AM 36.0617 -114.8322 300° West 225 259 6,500 -700 Descending Los Angeles Center
Wed 10:10:38 AM 36.0753 -114.8783 290° West 214 246 6,000 -871 Descending Los Angeles Center
Wed 10:11:01 AM 36.0775 -114.9039 276° West 222 255 5,600 -1,200 Descending Los Angeles Center
Wed 10:11:33 AM 36.0744 -114.9531 266° West 219 252 4,900 -1,180 Descending Los Angeles Center
Wed 10:12:02 AM 36.0733 -114.9789 267° West 221 254 4,400 -1,075 Descending Los Angeles Center
Wed 10:12:40 AM 36.0731 -115.0256 270° West 187 215 3,700 -968 Descending Los Angeles Center
Wed 10:13:04 AM 36.0742 -115.0389 276° West 200 230 3,400 -787 Descending Los Angeles Center
Wed 10:13:41 AM 36.0728 -115.0736 267° West 137 158 2,900 -689 Descending Los Angeles Center
Wed 10:14:05 AM 36.0742 -115.0856 278° West 164 189 2,700 -787 Descending Los Angeles Center
Wed 10:14:42 AM 36.0739 -115.1183 269° West 133 153 2,100 -774 Descending Los Angeles Center
Wed 10:15:07 AM 36.0744 -115.1303 273° West 144 166 1,900 -480 Descending Los Angeles Center
Wed 10:17:00 AM 36.0667 -115.1500 270° West  Level FlightAware Approximate

Login

Don't have an account? Register now (free) for customized features, flight alerts, and more!